sensor_id;sensor_type;location;lat;lon;timestamp;P1;durP1;ratioP1;P2;durP2;ratioP2
13197;SDS011;6664;52.514;13.440;2023-04-25T00:02:41;2.33;;;2.10;;
13197;SDS011;6664;52.514;13.440;2023-04-25T00:05:30;3.53;;;1.67;;
13197;SDS011;6664;52.514;13.440;2023-04-25T00:08:16;1.87;;;1.77;;
13197;SDS011;6664;52.514;13.440;2023-04-25T00:11:02;2.77;;;1.77;;
13197;SDS011;6664;52.514;13.440;2023-04-25T00:13:50;1.87;;;1.77;;
13197;SDS011;6664;52.514;13.440;2023-04-25T00:16:36;6.27;;;2.27;;
13197;SDS011;6664;52.514;13.440;2023-04-25T00:19:28;2.00;;;1.90;;
13197;SDS011;6664;52.514;13.440;2023-04-25T00:22:14;1.97;;;1.77;;
13197;SDS011;6664;52.514;13.440;2023-04-25T00:25:05;3.37;;;2.17;;
13197;SDS011;6664;52.514;13.440;2023-04-25T00:27:51;10.10;;;2.10;;
13197;SDS011;6664;52.514;13.440;2023-04-25T00:30:39;2.90;;;1.50;;
13197;SDS011;6664;52.514;13.440;2023-04-25T00:33:25;2.83;;;1.47;;
13197;SDS011;6664;52.514;13.440;2023-04-25T00:36:11;2.70;;;1.67;;
13197;SDS011;6664;52.514;13.440;2023-04-25T00:38:56;1.63;;;1.53;;
13197;SDS011;6664;52.514;13.440;2023-04-25T00:41:42;3.87;;;1.97;;
13197;SDS011;6664;52.514;13.440;2023-04-25T00:44:29;3.37;;;1.63;;
13197;SDS011;6664;52.514;13.440;2023-04-25T00:47:15;4.70;;;2.27;;
13197;SDS011;6664;52.514;13.440;2023-04-25T00:50:01;2.40;;;1.47;;
13197;SDS011;6664;52.514;13.440;2023-04-25T00:52:50;2.60;;;1.83;;
13197;SDS011;6664;52.514;13.440;2023-04-25T00:55:35;1.90;;;1.80;;
13197;SDS011;6664;52.514;13.440;2023-04-25T00:58:25;2.13;;;1.83;;
13197;SDS011;6664;52.514;13.440;2023-04-25T01:01:12;2.73;;;1.80;;
13197;SDS011;6664;52.514;13.440;2023-04-25T01:04:00;3.93;;;2.10;;
13197;SDS011;6664;52.514;13.440;2023-04-25T01:06:46;5.20;;;2.47;;
13197;SDS011;6664;52.514;13.440;2023-04-25T01:09:33;4.07;;;1.87;;
13197;SDS011;6664;52.514;13.440;2023-04-25T01:12:18;1.90;;;1.70;;
13197;SDS011;6664;52.514;13.440;2023-04-25T01:15:04;6.73;;;1.67;;
13197;SDS011;6664;52.514;13.440;2023-04-25T01:17:50;1.70;;;1.60;;
13197;SDS011;6664;52.514;13.440;2023-04-25T01:20:36;2.80;;;1.70;;
13197;SDS011;6664;52.514;13.440;2023-04-25T01:23:23;4.13;;;1.60;;
13197;SDS011;6664;52.514;13.440;2023-04-25T01:26:09;2.30;;;2.10;;
13197;SDS011;6664;52.514;13.440;2023-04-25T01:28:56;2.17;;;1.63;;
13197;SDS011;6664;52.514;13.440;2023-04-25T01:31:43;3.10;;;1.87;;
13197;SDS011;6664;52.514;13.440;2023-04-25T01:34:29;3.33;;;1.80;;
13197;SDS011;6664;52.514;13.440;2023-04-25T01:37:16;2.80;;;1.87;;
13197;SDS011;6664;52.514;13.440;2023-04-25T01:40:02;2.40;;;2.20;;
13197;SDS011;6664;52.514;13.440;2023-04-25T01:42:50;4.90;;;2.00;;
13197;SDS011;6664;52.514;13.440;2023-04-25T01:45:37;4.37;;;1.80;;
13197;SDS011;6664;52.514;13.440;2023-04-25T01:48:26;3.53;;;1.70;;
13197;SDS011;6664;52.514;13.440;2023-04-25T01:51:11;2.40;;;2.20;;
13197;SDS011;6664;52.514;13.440;2023-04-25T01:53:57;4.83;;;2.33;;
13197;SDS011;6664;52.514;13.440;2023-04-25T01:56:49;4.10;;;2.00;;
13197;SDS011;6664;52.514;13.440;2023-04-25T01:59:36;4.10;;;2.40;;
13197;SDS011;6664;52.514;13.440;2023-04-25T02:02:22;3.17;;;2.00;;
13197;SDS011;6664;52.514;13.440;2023-04-25T02:05:10;4.30;;;2.37;;
13197;SDS011;6664;52.514;13.440;2023-04-25T02:07:56;2.03;;;1.80;;
13197;SDS011;6664;52.514;13.440;2023-04-25T02:10:42;2.57;;;1.73;;
13197;SDS011;6664;52.514;13.440;2023-04-25T02:13:27;2.60;;;1.90;;
13197;SDS011;6664;52.514;13.440;2023-04-25T02:16:13;4.13;;;2.40;;
13197;SDS011;6664;52.514;13.440;2023-04-25T02:18:59;7.23;;;2.17;;
13197;SDS011;6664;52.514;13.440;2023-04-25T02:21:45;2.27;;;1.97;;
13197;SDS011;6664;52.514;13.440;2023-04-25T02:24:31;6.03;;;2.23;;
13197;SDS011;6664;52.514;13.440;2023-04-25T02:27:18;4.10;;;2.10;;
13197;SDS011;6664;52.514;13.440;2023-04-25T02:30:04;2.13;;;1.93;;
13197;SDS011;6664;52.514;13.440;2023-04-25T02:32:51;2.03;;;1.93;;
13197;SDS011;6664;52.514;13.440;2023-04-25T02:35:37;3.50;;;2.60;;
13197;SDS011;6664;52.514;13.440;2023-04-25T02:38:22;7.03;;;2.23;;
13197;SDS011;6664;52.514;13.440;2023-04-25T02:41:08;3.00;;;1.80;;
13197;SDS011;6664;52.514;13.440;2023-04-25T02:43:55;3.50;;;2.23;;
13197;SDS011;6664;52.514;13.440;2023-04-25T02:46:40;2.43;;;2.10;;
13197;SDS011;6664;52.514;13.440;2023-04-25T02:49:26;5.93;;;2.50;;
13197;SDS011;6664;52.514;13.440;2023-04-25T02:52:12;4.03;;;2.40;;
13197;SDS011;6664;52.514;13.440;2023-04-25T02:55:01;3.63;;;1.90;;
13197;SDS011;6664;52.514;13.440;2023-04-25T02:57:48;6.50;;;2.83;;
13197;SDS011;6664;52.514;13.440;2023-04-25T03:00:33;7.70;;;2.30;;
13197;SDS011;6664;52.514;13.440;2023-04-25T03:03:19;2.40;;;2.20;;
13197;SDS011;6664;52.514;13.440;2023-04-25T03:06:06;6.30;;;2.77;;
13197;SDS011;6664;52.514;13.440;2023-04-25T03:08:52;2.37;;;2.17;;
13197;SDS011;6664;52.514;13.440;2023-04-25T03:11:38;3.83;;;2.50;;
13197;SDS011;6664;52.514;13.440;2023-04-25T03:14:24;3.47;;;2.13;;
13197;SDS011;6664;52.514;13.440;2023-04-25T03:17:12;3.03;;;2.20;;
13197;SDS011;6664;52.514;13.440;2023-04-25T03:19:57;5.03;;;2.30;;
13197;SDS011;6664;52.514;13.440;2023-04-25T03:22:43;3.40;;;2.50;;
13197;SDS011;6664;52.514;13.440;2023-04-25T03:25:31;3.00;;;2.67;;
13197;SDS011;6664;52.514;13.440;2023-04-25T03:28:16;10.17;;;2.90;;
13197;SDS011;6664;52.514;13.440;2023-04-25T03:31:02;5.37;;;2.73;;
13197;SDS011;6664;52.514;13.440;2023-04-25T03:33:48;4.93;;;2.60;;
13197;SDS011;6664;52.514;13.440;2023-04-25T03:36:34;3.23;;;2.47;;
13197;SDS011;6664;52.514;13.440;2023-04-25T03:39:20;7.43;;;2.93;;
13197;SDS011;6664;52.514;13.440;2023-04-25T03:42:05;6.43;;;3.30;;
13197;SDS011;6664;52.514;13.440;2023-04-25T03:44:51;5.13;;;2.63;;
13197;SDS011;6664;52.514;13.440;2023-04-25T03:47:39;2.73;;;2.50;;
13197;SDS011;6664;52.514;13.440;2023-04-25T03:50:25;2.47;;;2.27;;
13197;SDS011;6664;52.514;13.440;2023-04-25T03:53:11;4.50;;;2.93;;
13197;SDS011;6664;52.514;13.440;2023-04-25T03:55:56;3.00;;;2.40;;
13197;SDS011;6664;52.514;13.440;2023-04-25T03:58:42;7.13;;;3.20;;
13197;SDS011;6664;52.514;13.440;2023-04-25T04:01:27;4.13;;;2.70;;
13197;SDS011;6664;52.514;13.440;2023-04-25T04:04:13;3.00;;;1.97;;
13197;SDS011;6664;52.514;13.440;2023-04-25T04:06:59;3.00;;;2.50;;
13197;SDS011;6664;52.514;13.440;2023-04-25T04:09:45;4.07;;;2.47;;
13197;SDS011;6664;52.514;13.440;2023-04-25T04:12:33;5.13;;;2.80;;
13197;SDS011;6664;52.514;13.440;2023-04-25T04:15:19;2.30;;;2.07;;
13197;SDS011;6664;52.514;13.440;2023-04-25T04:18:05;2.80;;;2.23;;
13197;SDS011;6664;52.514;13.440;2023-04-25T04:20:51;6.80;;;2.67;;
13197;SDS011;6664;52.514;13.440;2023-04-25T04:23:40;7.47;;;2.33;;
13197;SDS011;6664;52.514;13.440;2023-04-25T04:26:25;4.00;;;2.70;;
13197;SDS011;6664;52.514;13.440;2023-04-25T04:29:11;3.97;;;2.60;;
13197;SDS011;6664;52.514;13.440;2023-04-25T04:31:57;3.60;;;2.10;;
13197;SDS011;6664;52.514;13.440;2023-04-25T04:34:45;2.40;;;1.83;;
13197;SDS011;6664;52.514;13.440;2023-04-25T04:37:36;5.67;;;2.97;;
13197;SDS011;6664;52.514;13.440;2023-04-25T04:40:21;3.73;;;2.57;;
13197;SDS011;6664;52.514;13.440;2023-04-25T04:43:07;6.47;;;2.27;;
13197;SDS011;6664;52.514;13.440;2023-04-25T04:45:55;5.60;;;2.83;;
13197;SDS011;6664;52.514;13.440;2023-04-25T04:48:41;6.10;;;2.47;;
13197;SDS011;6664;52.514;13.440;2023-04-25T04:51:27;3.00;;;2.13;;
13197;SDS011;6664;52.514;13.440;2023-04-25T04:54:13;7.87;;;2.73;;
13197;SDS011;6664;52.514;13.440;2023-04-25T04:56:58;5.50;;;2.37;;
13197;SDS011;6664;52.514;13.440;2023-04-25T04:59:44;2.93;;;2.20;;
13197;SDS011;6664;52.514;13.440;2023-04-25T05:02:30;5.47;;;2.23;;
13197;SDS011;6664;52.514;13.440;2023-04-25T05:05:16;5.20;;;2.40;;
13197;SDS011;6664;52.514;13.440;2023-04-25T05:08:02;3.80;;;2.03;;
13197;SDS011;6664;52.514;13.440;2023-04-25T05:10:47;4.77;;;2.90;;
13197;SDS011;6664;52.514;13.440;2023-04-25T05:13:35;7.07;;;2.07;;
13197;SDS011;6664;52.514;13.440;2023-04-25T05:16:23;11.83;;;2.67;;
13197;SDS011;6664;52.514;13.440;2023-04-25T05:19:08;3.33;;;2.27;;
13197;SDS011;6664;52.514;13.440;2023-04-25T05:21:56;4.40;;;2.57;;
13197;SDS011;6664;52.514;13.440;2023-04-25T05:24:44;7.70;;;2.23;;
13197;SDS011;6664;52.514;13.440;2023-04-25T05:27:33;4.90;;;2.27;;
13197;SDS011;6664;52.514;13.440;2023-04-25T05:30:19;5.30;;;2.90;;
13197;SDS011;6664;52.514;13.440;2023-04-25T05:33:05;3.93;;;2.30;;
13197;SDS011;6664;52.514;13.440;2023-04-25T05:35:52;5.93;;;2.33;;
13197;SDS011;6664;52.514;13.440;2023-04-25T05:38:39;3.23;;;2.20;;
13197;SDS011;6664;52.514;13.440;2023-04-25T05:41:24;2.47;;;2.10;;
13197;SDS011;6664;52.514;13.440;2023-04-25T05:44:10;2.20;;;2.00;;
13197;SDS011;6664;52.514;13.440;2023-04-25T05:46:55;3.07;;;2.37;;
13197;SDS011;6664;52.514;13.440;2023-04-25T05:49:41;4.70;;;2.87;;
13197;SDS011;6664;52.514;13.440;2023-04-25T05:52:26;4.33;;;2.60;;
13197;SDS011;6664;52.514;13.440;2023-04-25T05:55:12;5.00;;;2.30;;
13197;SDS011;6664;52.514;13.440;2023-04-25T05:57:58;7.97;;;2.83;;
13197;SDS011;6664;52.514;13.440;2023-04-25T06:00:45;3.30;;;2.37;;
13197;SDS011;6664;52.514;13.440;2023-04-25T06:03:31;4.70;;;2.83;;
13197;SDS011;6664;52.514;13.440;2023-04-25T06:06:17;4.47;;;2.60;;
13197;SDS011;6664;52.514;13.440;2023-04-25T06:09:05;10.73;;;3.10;;
13197;SDS011;6664;52.514;13.440;2023-04-25T06:11:51;6.87;;;2.90;;
13197;SDS011;6664;52.514;13.440;2023-04-25T06:14:40;8.80;;;2.77;;
13197;SDS011;6664;52.514;13.440;2023-04-25T06:17:26;6.30;;;2.93;;
13197;SDS011;6664;52.514;13.440;2023-04-25T06:20:11;4.43;;;2.60;;
13197;SDS011;6664;52.514;13.440;2023-04-25T06:22:59;3.23;;;2.50;;
13197;SDS011;6664;52.514;13.440;2023-04-25T06:25:45;5.27;;;2.70;;
13197;SDS011;6664;52.514;13.440;2023-04-25T06:28:31;2.67;;;2.57;;
13197;SDS011;6664;52.514;13.440;2023-04-25T06:31:19;7.33;;;3.53;;
13197;SDS011;6664;52.514;13.440;2023-04-25T06:34:05;6.03;;;3.17;;
13197;SDS011;6664;52.514;13.440;2023-04-25T06:36:50;7.40;;;2.80;;
13197;SDS011;6664;52.514;13.440;2023-04-25T06:39:35;5.27;;;3.37;;
13197;SDS011;6664;52.514;13.440;2023-04-25T06:42:24;8.57;;;3.30;;
13197;SDS011;6664;52.514;13.440;2023-04-25T06:45:10;4.57;;;3.30;;
13197;SDS011;6664;52.514;13.440;2023-04-25T06:47:56;3.03;;;2.77;;
13197;SDS011;6664;52.514;13.440;2023-04-25T06:50:42;5.53;;;3.10;;
13197;SDS011;6664;52.514;13.440;2023-04-25T06:53:27;3.47;;;2.80;;
13197;SDS011;6664;52.514;13.440;2023-04-25T06:56:12;4.70;;;3.77;;
13197;SDS011;6664;52.514;13.440;2023-04-25T06:58:58;4.87;;;3.00;;
13197;SDS011;6664;52.514;13.440;2023-04-25T07:01:45;3.10;;;2.50;;
13197;SDS011;6664;52.514;13.440;2023-04-25T07:04:31;4.43;;;2.80;;
13197;SDS011;6664;52.514;13.440;2023-04-25T07:07:17;3.13;;;2.83;;
13197;SDS011;6664;52.514;13.440;2023-04-25T07:10:02;4.57;;;3.10;;
13197;SDS011;6664;52.514;13.440;2023-04-25T07:12:48;7.50;;;2.43;;
13197;SDS011;6664;52.514;13.440;2023-04-25T07:15:33;2.67;;;2.43;;
13197;SDS011;6664;52.514;13.440;2023-04-25T07:18:19;4.10;;;2.80;;
13197;SDS011;6664;52.514;13.440;2023-04-25T07:21:05;3.10;;;2.50;;
13197;SDS011;6664;52.514;13.440;2023-04-25T07:23:51;3.53;;;2.30;;
13197;SDS011;6664;52.514;13.440;2023-04-25T07:26:37;2.97;;;2.70;;
13197;SDS011;6664;52.514;13.440;2023-04-25T07:29:22;3.63;;;2.50;;
13197;SDS011;6664;52.514;13.440;2023-04-25T07:32:07;9.87;;;3.13;;
13197;SDS011;6664;52.514;13.440;2023-04-25T07:34:57;7.27;;;2.80;;
13197;SDS011;6664;52.514;13.440;2023-04-25T07:37:45;7.13;;;3.50;;
13197;SDS011;6664;52.514;13.440;2023-04-25T07:40:31;3.80;;;2.80;;
13197;SDS011;6664;52.514;13.440;2023-04-25T07:43:16;4.60;;;2.70;;
13197;SDS011;6664;52.514;13.440;2023-04-25T07:46:02;7.80;;;3.17;;
13197;SDS011;6664;52.514;13.440;2023-04-25T07:48:50;6.90;;;2.47;;
13197;SDS011;6664;52.514;13.440;2023-04-25T07:51:36;5.93;;;2.47;;
13197;SDS011;6664;52.514;13.440;2023-04-25T07:54:24;7.30;;;2.43;;
13197;SDS011;6664;52.514;13.440;2023-04-25T07:57:10;4.87;;;2.50;;
13197;SDS011;6664;52.514;13.440;2023-04-25T07:59:55;3.27;;;1.87;;
13197;SDS011;6664;52.514;13.440;2023-04-25T08:02:43;3.33;;;2.10;;
13197;SDS011;6664;52.514;13.440;2023-04-25T08:05:31;4.23;;;2.40;;
13197;SDS011;6664;52.514;13.440;2023-04-25T08:08:17;7.47;;;2.10;;
13197;SDS011;6664;52.514;13.440;2023-04-25T08:11:07;7.23;;;2.73;;
13197;SDS011;6664;52.514;13.440;2023-04-25T08:13:52;12.20;;;2.37;;
13197;SDS011;6664;52.514;13.440;2023-04-25T08:16:38;9.17;;;2.20;;
13197;SDS011;6664;52.514;13.440;2023-04-25T08:19:24;8.60;;;2.53;;
13197;SDS011;6664;52.514;13.440;2023-04-25T08:22:10;8.70;;;2.93;;
13197;SDS011;6664;52.514;13.440;2023-04-25T08:24:57;6.63;;;2.17;;
13197;SDS011;6664;52.514;13.440;2023-04-25T08:27:43;8.23;;;2.03;;
13197;SDS011;6664;52.514;13.440;2023-04-25T08:30:29;10.50;;;2.90;;
13197;SDS011;6664;52.514;13.440;2023-04-25T08:33:15;8.07;;;2.63;;
13197;SDS011;6664;52.514;13.440;2023-04-25T08:36:03;9.47;;;2.30;;
13197;SDS011;6664;52.514;13.440;2023-04-25T08:38:49;9.20;;;2.77;;
13197;SDS011;6664;52.514;13.440;2023-04-25T08:41:39;8.50;;;1.80;;
13197;SDS011;6664;52.514;13.440;2023-04-25T08:44:26;8.90;;;3.50;;
13197;SDS011;6664;52.514;13.440;2023-04-25T08:47:18;16.27;;;2.40;;
13197;SDS011;6664;52.514;13.440;2023-04-25T08:50:06;19.67;;;2.90;;
13197;SDS011;6664;52.514;13.440;2023-04-25T08:52:53;12.57;;;2.80;;
13197;SDS011;6664;52.514;13.440;2023-04-25T08:55:43;13.10;;;2.80;;
13197;SDS011;6664;52.514;13.440;2023-04-25T08:58:33;4.33;;;1.93;;
13197;SDS011;6664;52.514;13.440;2023-04-25T09:01:20;11.07;;;1.60;;
13197;SDS011;6664;52.514;13.440;2023-04-25T09:04:06;9.00;;;1.87;;
13197;SDS011;6664;52.514;13.440;2023-04-25T09:06:52;8.83;;;2.10;;
13197;SDS011;6664;52.514;13.440;2023-04-25T09:09:38;11.03;;;3.10;;
13197;SDS011;6664;52.514;13.440;2023-04-25T09:12:24;17.80;;;2.67;;
13197;SDS011;6664;52.514;13.440;2023-04-25T09:15:13;11.67;;;2.17;;
13197;SDS011;6664;52.514;13.440;2023-04-25T09:18:02;7.90;;;1.80;;
13197;SDS011;6664;52.514;13.440;2023-04-25T09:20:48;10.93;;;2.13;;
13197;SDS011;6664;52.514;13.440;2023-04-25T09:23:48;7.67;;;2.07;;
13197;SDS011;6664;52.514;13.440;2023-04-25T09:26:37;4.50;;;1.87;;
13197;SDS011;6664;52.514;13.440;2023-04-25T09:29:32;4.90;;;2.10;;
13197;SDS011;6664;52.514;13.440;2023-04-25T09:32:20;5.40;;;2.30;;
13197;SDS011;6664;52.514;13.440;2023-04-25T09:35:09;7.23;;;1.80;;
13197;SDS011;6664;52.514;13.440;2023-04-25T09:38:18;6.00;;;2.10;;
13197;SDS011;6664;52.514;13.440;2023-04-25T09:41:03;10.80;;;2.10;;
13197;SDS011;6664;52.514;13.440;2023-04-25T09:43:49;8.20;;;2.37;;
13197;SDS011;6664;52.514;13.440;2023-04-25T09:46:35;11.50;;;2.07;;
13197;SDS011;6664;52.514;13.440;2023-04-25T09:49:24;6.57;;;2.20;;
13197;SDS011;6664;52.514;13.440;2023-04-25T09:52:15;6.77;;;1.63;;
13197;SDS011;6664;52.514;13.440;2023-04-25T09:55:02;7.37;;;1.37;;
13197;SDS011;6664;52.514;13.440;2023-04-25T09:57:51;4.10;;;1.53;;
13197;SDS011;6664;52.514;13.440;2023-04-25T10:00:40;6.10;;;1.70;;
13197;SDS011;6664;52.514;13.440;2023-04-25T10:03:26;15.93;;;1.83;;
13197;SDS011;6664;52.514;13.440;2023-04-25T10:06:17;3.10;;;1.80;;
13197;SDS011;6664;52.514;13.440;2023-04-25T10:09:08;2.80;;;1.63;;
13197;SDS011;6664;52.514;13.440;2023-04-25T10:11:53;3.30;;;2.33;;
13197;SDS011;6664;52.514;13.440;2023-04-25T10:14:41;7.90;;;1.60;;
13197;SDS011;6664;52.514;13.440;2023-04-25T10:17:27;5.63;;;1.83;;
13197;SDS011;6664;52.514;13.440;2023-04-25T10:20:13;6.00;;;1.83;;
13197;SDS011;6664;52.514;13.440;2023-04-25T10:23:03;7.33;;;1.70;;
13197;SDS011;6664;52.514;13.440;2023-04-25T10:25:55;5.43;;;1.47;;
13197;SDS011;6664;52.514;13.440;2023-04-25T10:28:58;6.27;;;2.03;;
13197;SDS011;6664;52.514;13.440;2023-04-25T10:31:46;4.73;;;1.43;;
13197;SDS011;6664;52.514;13.440;2023-04-25T10:34:39;5.40;;;1.77;;
13197;SDS011;6664;52.514;13.440;2023-04-25T10:37:31;6.30;;;2.60;;
13197;SDS011;6664;52.514;13.440;2023-04-25T10:40:19;9.13;;;1.70;;
13197;SDS011;6664;52.514;13.440;2023-04-25T10:46:25;7.23;;;1.87;;
13197;SDS011;6664;52.514;13.440;2023-04-25T10:49:46;5.30;;;1.80;;
13197;SDS011;6664;52.514;13.440;2023-04-25T10:52:27;5.50;;;1.87;;
13197;SDS011;6664;52.514;13.440;2023-04-25T10:55:14;6.40;;;1.70;;
13197;SDS011;6664;52.514;13.440;2023-04-25T10:57:59;3.80;;;1.53;;
13197;SDS011;6664;52.514;13.440;2023-04-25T11:00:45;1.30;;;1.20;;
13197;SDS011;6664;52.514;13.440;2023-04-25T11:03:40;3.10;;;1.80;;
13197;SDS011;6664;52.514;13.440;2023-04-25T11:06:42;2.80;;;1.47;;
13197;SDS011;6664;52.514;13.440;2023-04-25T11:09:50;2.53;;;1.53;;
13197;SDS011;6664;52.514;13.440;2023-04-25T11:12:36;5.37;;;1.77;;
13197;SDS011;6664;52.514;13.440;2023-04-25T11:15:22;27.23;;;2.47;;
13197;SDS011;6664;52.514;13.440;2023-04-25T11:18:08;4.70;;;2.00;;
13197;SDS011;6664;52.514;13.440;2023-04-25T11:20:56;4.07;;;2.00;;
13197;SDS011;6664;52.514;13.440;2023-04-25T11:23:44;9.40;;;1.50;;
13197;SDS011;6664;52.514;13.440;2023-04-25T11:26:31;3.27;;;1.43;;
13197;SDS011;6664;52.514;13.440;2023-04-25T11:29:16;3.93;;;1.60;;
13197;SDS011;6664;52.514;13.440;2023-04-25T11:32:07;4.60;;;1.80;;
13197;SDS011;6664;52.514;13.440;2023-04-25T11:34:52;5.77;;;1.60;;
13197;SDS011;6664;52.514;13.440;2023-04-25T11:37:39;2.10;;;1.43;;
13197;SDS011;6664;52.514;13.440;2023-04-25T11:40:30;6.30;;;1.40;;
13197;SDS011;6664;52.514;13.440;2023-04-25T11:43:15;13.73;;;2.10;;
13197;SDS011;6664;52.514;13.440;2023-04-25T11:46:08;3.73;;;1.53;;
13197;SDS011;6664;52.514;13.440;2023-04-25T11:48:57;9.57;;;1.93;;
13197;SDS011;6664;52.514;13.440;2023-04-25T11:51:45;1.77;;;1.30;;
13197;SDS011;6664;52.514;13.440;2023-04-25T11:54:35;4.00;;;1.40;;
13197;SDS011;6664;52.514;13.440;2023-04-25T11:57:21;3.03;;;1.40;;
13197;SDS011;6664;52.514;13.440;2023-04-25T12:00:14;3.83;;;1.60;;
13197;SDS011;6664;52.514;13.440;2023-04-25T12:03:08;2.27;;;1.33;;
13197;SDS011;6664;52.514;13.440;2023-04-25T12:06:02;4.67;;;1.70;;
13197;SDS011;6664;52.514;13.440;2023-04-25T12:09:00;3.63;;;1.50;;
13197;SDS011;6664;52.514;13.440;2023-04-25T12:11:49;2.20;;;1.30;;
13197;SDS011;6664;52.514;13.440;2023-04-25T12:14:38;4.40;;;1.73;;
13197;SDS011;6664;52.514;13.440;2023-04-25T12:17:26;5.90;;;1.57;;
13197;SDS011;6664;52.514;13.440;2023-04-25T12:20:14;3.00;;;1.20;;
13197;SDS011;6664;52.514;13.440;2023-04-25T12:23:07;4.93;;;1.63;;
13197;SDS011;6664;52.514;13.440;2023-04-25T12:25:52;5.13;;;1.70;;
13197;SDS011;6664;52.514;13.440;2023-04-25T12:28:38;3.20;;;1.27;;
13197;SDS011;6664;52.514;13.440;2023-04-25T12:31:23;3.60;;;1.53;;
13197;SDS011;6664;52.514;13.440;2023-04-25T12:34:09;4.60;;;1.30;;
13197;SDS011;6664;52.514;13.440;2023-04-25T12:36:54;3.77;;;1.60;;
13197;SDS011;6664;52.514;13.440;2023-04-25T12:39:41;6.03;;;1.70;;
13197;SDS011;6664;52.514;13.440;2023-04-25T12:42:26;3.33;;;1.10;;
13197;SDS011;6664;52.514;13.440;2023-04-25T12:45:14;3.00;;;1.67;;
13197;SDS011;6664;52.514;13.440;2023-04-25T12:47:59;3.07;;;1.20;;
13197;SDS011;6664;52.514;13.440;2023-04-25T12:50:48;2.50;;;1.17;;
13197;SDS011;6664;52.514;13.440;2023-04-25T12:53:35;3.23;;;1.60;;
13197;SDS011;6664;52.514;13.440;2023-04-25T12:56:22;1.77;;;1.20;;
13197;SDS011;6664;52.514;13.440;2023-04-25T12:59:09;3.33;;;1.63;;
13197;SDS011;6664;52.514;13.440;2023-04-25T13:01:57;2.57;;;1.30;;
13197;SDS011;6664;52.514;13.440;2023-04-25T13:04:43;5.10;;;1.43;;
13197;SDS011;6664;52.514;13.440;2023-04-25T13:07:31;2.60;;;0.87;;
13197;SDS011;6664;52.514;13.440;2023-04-25T13:10:19;3.07;;;1.37;;
13197;SDS011;6664;52.514;13.440;2023-04-25T13:13:04;1.47;;;1.10;;
13197;SDS011;6664;52.514;13.440;2023-04-25T13:15:50;4.57;;;1.40;;
13197;SDS011;6664;52.514;13.440;2023-04-25T13:18:38;3.53;;;1.27;;
13197;SDS011;6664;52.514;13.440;2023-04-25T13:21:25;2.67;;;0.93;;
13197;SDS011;6664;52.514;13.440;2023-04-25T13:24:11;9.27;;;1.50;;
13197;SDS011;6664;52.514;13.440;2023-04-25T13:26:57;1.33;;;0.97;;
13197;SDS011;6664;52.514;13.440;2023-04-25T13:29:42;4.83;;;1.43;;
13197;SDS011;6664;52.514;13.440;2023-04-25T13:32:28;5.27;;;1.40;;
13197;SDS011;6664;52.514;13.440;2023-04-25T13:35:13;3.73;;;1.20;;
13197;SDS011;6664;52.514;13.440;2023-04-25T13:38:00;2.17;;;1.20;;
13197;SDS011;6664;52.514;13.440;2023-04-25T13:40:45;5.77;;;1.40;;
13197;SDS011;6664;52.514;13.440;2023-04-25T13:43:31;2.20;;;1.03;;
13197;SDS011;6664;52.514;13.440;2023-04-25T13:46:20;3.63;;;1.20;;
13197;SDS011;6664;52.514;13.440;2023-04-25T13:49:26;3.50;;;1.40;;
13197;SDS011;6664;52.514;13.440;2023-04-25T13:52:12;6.57;;;1.60;;
13197;SDS011;6664;52.514;13.440;2023-04-25T13:54:58;2.00;;;0.80;;
13197;SDS011;6664;52.514;13.440;2023-04-25T13:57:44;4.07;;;1.60;;
13197;SDS011;6664;52.514;13.440;2023-04-25T14:00:32;6.80;;;1.10;;
13197;SDS011;6664;52.514;13.440;2023-04-25T14:03:18;5.97;;;1.47;;
13197;SDS011;6664;52.514;13.440;2023-04-25T14:06:03;5.53;;;1.57;;
13197;SDS011;6664;52.514;13.440;2023-04-25T14:08:53;7.97;;;1.20;;
13197;SDS011;6664;52.514;13.440;2023-04-25T14:11:38;3.20;;;1.20;;
13197;SDS011;6664;52.514;13.440;2023-04-25T14:14:24;3.53;;;1.30;;
13197;SDS011;6664;52.514;13.440;2023-04-25T14:17:10;2.50;;;1.30;;
13197;SDS011;6664;52.514;13.440;2023-04-25T14:19:56;4.43;;;1.30;;
13197;SDS011;6664;52.514;13.440;2023-04-25T14:22:43;2.40;;;1.27;;
13197;SDS011;6664;52.514;13.440;2023-04-25T14:25:31;1.00;;;1.00;;
13197;SDS011;6664;52.514;13.440;2023-04-25T14:28:16;3.20;;;1.27;;
13197;SDS011;6664;52.514;13.440;2023-04-25T14:31:02;6.20;;;1.00;;
13197;SDS011;6664;52.514;13.440;2023-04-25T14:33:47;2.10;;;1.27;;
13197;SDS011;6664;52.514;13.440;2023-04-25T14:36:35;2.00;;;1.00;;
13197;SDS011;6664;52.514;13.440;2023-04-25T14:39:21;3.30;;;1.10;;
13197;SDS011;6664;52.514;13.440;2023-04-25T14:42:06;2.77;;;1.00;;
13197;SDS011;6664;52.514;13.440;2023-04-25T14:44:52;1.53;;;1.20;;
13197;SDS011;6664;52.514;13.440;2023-04-25T14:47:37;2.00;;;1.10;;
13197;SDS011;6664;52.514;13.440;2023-04-25T14:50:23;2.63;;;1.13;;
13197;SDS011;6664;52.514;13.440;2023-04-25T14:53:09;2.83;;;1.23;;
13197;SDS011;6664;52.514;13.440;2023-04-25T14:55:57;4.93;;;1.17;;
13197;SDS011;6664;52.514;13.440;2023-04-25T14:58:45;6.50;;;1.23;;
13197;SDS011;6664;52.514;13.440;2023-04-25T15:01:31;1.50;;;1.27;;
13197;SDS011;6664;52.514;13.440;2023-04-25T15:04:19;2.80;;;1.17;;
13197;SDS011;6664;52.514;13.440;2023-04-25T15:07:05;1.20;;;1.10;;
13197;SDS011;6664;52.514;13.440;2023-04-25T15:09:50;2.70;;;1.33;;
13197;SDS011;6664;52.514;13.440;2023-04-25T15:12:38;9.30;;;1.87;;
13197;SDS011;6664;52.514;13.440;2023-04-25T15:15:24;3.83;;;1.30;;
13197;SDS011;6664;52.514;13.440;2023-04-25T15:18:11;6.77;;;1.47;;
13197;SDS011;6664;52.514;13.440;2023-04-25T15:20:57;3.27;;;1.07;;
13197;SDS011;6664;52.514;13.440;2023-04-25T15:23:43;0.83;;;0.80;;
13197;SDS011;6664;52.514;13.440;2023-04-25T15:26:29;1.43;;;1.00;;
13197;SDS011;6664;52.514;13.440;2023-04-25T15:29:14;3.73;;;1.30;;
13197;SDS011;6664;52.514;13.440;2023-04-25T15:32:00;4.20;;;1.30;;
13197;SDS011;6664;52.514;13.440;2023-04-25T15:34:46;3.70;;;1.20;;
13197;SDS011;6664;52.514;13.440;2023-04-25T15:37:35;2.07;;;0.97;;
13197;SDS011;6664;52.514;13.440;2023-04-25T15:40:24;1.30;;;1.10;;
13197;SDS011;6664;52.514;13.440;2023-04-25T15:43:10;1.83;;;1.07;;
13197;SDS011;6664;52.514;13.440;2023-04-25T15:46:00;2.43;;;1.10;;
13197;SDS011;6664;52.514;13.440;2023-04-25T15:48:48;1.40;;;0.90;;
13197;SDS011;6664;52.514;13.440;2023-04-25T15:51:34;1.97;;;1.17;;
13197;SDS011;6664;52.514;13.440;2023-04-25T15:54:20;1.47;;;0.80;;
13197;SDS011;6664;52.514;13.440;2023-04-25T15:57:07;2.60;;;1.10;;
13197;SDS011;6664;52.514;13.440;2023-04-25T15:59:56;1.83;;;0.97;;
13197;SDS011;6664;52.514;13.440;2023-04-25T16:02:49;3.33;;;1.33;;
13197;SDS011;6664;52.514;13.440;2023-04-25T16:05:35;2.60;;;1.10;;
13197;SDS011;6664;52.514;13.440;2023-04-25T16:08:21;2.87;;;0.87;;
13197;SDS011;6664;52.514;13.440;2023-04-25T16:11:07;1.97;;;0.90;;
13197;SDS011;6664;52.514;13.440;2023-04-25T16:13:53;3.43;;;1.17;;
13197;SDS011;6664;52.514;13.440;2023-04-25T16:16:42;3.53;;;1.20;;
13197;SDS011;6664;52.514;13.440;2023-04-25T16:19:28;4.40;;;0.80;;
13197;SDS011;6664;52.514;13.440;2023-04-25T16:22:14;0.97;;;0.93;;
13197;SDS011;6664;52.514;13.440;2023-04-25T16:25:05;3.67;;;0.93;;
13197;SDS011;6664;52.514;13.440;2023-04-25T16:27:51;1.37;;;0.80;;
13197;SDS011;6664;52.514;13.440;2023-04-25T16:30:37;2.93;;;1.23;;
13197;SDS011;6664;52.514;13.440;2023-04-25T16:33:26;5.13;;;1.00;;
13197;SDS011;6664;52.514;13.440;2023-04-25T16:36:11;2.83;;;1.33;;
13197;SDS011;6664;52.514;13.440;2023-04-25T16:38:57;13.10;;;1.00;;
13197;SDS011;6664;52.514;13.440;2023-04-25T16:41:45;1.37;;;0.97;;
13197;SDS011;6664;52.514;13.440;2023-04-25T16:44:31;0.70;;;0.70;;
13197;SDS011;6664;52.514;13.440;2023-04-25T16:47:17;2.77;;;1.10;;
13197;SDS011;6664;52.514;13.440;2023-04-25T16:50:04;1.90;;;0.60;;
13197;SDS011;6664;52.514;13.440;2023-04-25T16:52:51;5.03;;;0.97;;